Time;durP1;ratioP1;P1;durP2;ratioP2;P2;SDS_P1;SDS_P2;PMS_P1;PMS_P2;Temp;Humidity;BMP_temperature;BMP_pressure;BME280_temperature;BME280_humidity;BME280_pressure;Samples;Min_cycle;Max_cycle;Signal;HPM_P1;HPM_P2
2022/08/03 00:09:03;;;;;;;1.15;0.30;;;20.20;99.90;;;;;;20842271;28;20499;-38
2022/08/03 00:19:04;;;;;;;0.65;0.20;;;20.20;99.90;;;;;;20844814;28;20083;-38
2022/08/03 00:29:05;;;;;;;0.70;0.20;;;20.20;99.90;;;;;;20843114;28;20420;-38
2022/08/03 00:39:06;;;;;;;1.33;0.20;;;20.10;99.90;;;;;;20839005;28;20096;-38
2022/08/03 00:49:07;;;;;;;2.83;1.35;;;20.00;99.90;;;;;;20840739;28;20041;-40
2022/08/03 00:59:13;;;;;;;0.65;0.20;;;20.00;99.90;;;;;;20835516;28;20068;-38
2022/08/03 01:09:26;;;;;;;0.68;0.20;;;19.90;99.90;;;;;;20836292;28;20141;-39
2022/08/03 01:20:01;;;;;;;0.93;0.40;;;19.90;99.90;;;;;;20835567;28;20232;-38
2022/08/03 01:30:07;;;;;;;1.75;1.27;;;19.60;99.90;;;;;;20811312;28;20569;-38
2022/08/03 01:40:12;;;;;;;0.90;0.40;;;19.60;99.90;;;;;;20835405;28;20142;-38
2022/08/03 01:50:17;;;;;;;0.85;0.35;;;19.60;99.90;;;;;;20844040;28;20044;-38
2022/08/03 02:00:18;;;;;;;6.97;0.90;;;19.50;99.90;;;;;;20855295;28;20283;-38
2022/08/03 02:10:21;;;;;;;1.05;0.40;;;19.40;99.90;;;;;;20850218;28;20373;-38
2022/08/03 02:20:23;;;;;;;1.13;0.40;;;19.30;99.90;;;;;;20848513;28;20449;-39
2022/08/03 02:30:32;;;;;;;1.40;0.40;;;19.20;99.90;;;;;;20848844;28;20176;-38
2022/08/03 02:40:34;;;;;;;1.73;0.40;;;19.30;99.90;;;;;;20844519;28;21887;-39
2022/08/03 02:50:36;;;;;;;1.45;0.50;;;19.20;99.90;;;;;;20846638;28;20588;-38
2022/08/03 03:00:39;;;;;;;1.38;0.47;;;19.20;99.90;;;;;;20850689;28;20550;-38
2022/08/03 03:10:40;;;;;;;1.65;0.52;;;19.10;99.90;;;;;;20851135;28;20045;-39
2022/08/03 03:20:43;;;;;;;2.22;0.65;;;19.10;99.90;;;;;;20849543;28;20032;-39
2022/08/03 03:30:44;;;;;;;1.30;0.60;;;19.00;99.90;;;;;;20849770;28;20069;-39
2022/08/03 03:40:46;;;;;;;7.90;1.23;;;18.90;99.90;;;;;;20847312;28;20052;-39
2022/08/03 03:50:48;;;;;;;1.92;0.68;;;18.90;99.90;;;;;;20840060;28;20488;-38
2022/08/03 04:00:50;;;;;;;2.47;0.80;;;18.90;99.90;;;;;;20846325;28;20265;-38
2022/08/03 04:11:12;;;;;;;2.50;0.40;;;18.90;99.90;;;;;;20849540;28;20087;-38
2022/08/03 04:21:15;;;;;;;2.25;0.73;;;18.80;99.90;;;;;;20846312;28;20074;-38
2022/08/03 04:31:20;;;;;;;1.73;0.50;;;18.80;99.90;;;;;;20853297;28;20717;-39
2022/08/03 04:41:24;;;;;;;2.63;0.95;;;18.70;99.90;;;;;;20866808;28;20135;-38
2022/08/03 04:51:26;;;;;;;2.40;0.90;;;18.70;99.90;;;;;;20860509;28;20041;-39
2022/08/03 05:01:27;;;;;;;3.42;1.85;;;18.70;99.90;;;;;;20838745;28;20033;-39
2022/08/03 05:11:27;;;;;;;3.20;0.60;;;18.50;99.90;;;;;;20848788;28;20041;-38
2022/08/03 05:21:28;;;;;;;2.65;0.60;;;18.50;99.90;;;;;;20837839;28;20040;-38
2022/08/03 05:31:30;;;;;;;2.25;0.73;;;18.50;99.90;;;;;;20860475;28;21726;-38
2022/08/03 05:41:31;;;;;;;3.60;0.75;;;18.60;99.90;;;;;;20857995;28;20045;-38
2022/08/03 05:51:32;;;;;;;4.65;2.20;;;18.90;99.90;;;;;;20867656;28;20747;-38
2022/08/03 06:01:33;;;;;;;3.53;1.13;;;19.20;99.90;;;;;;20846733;28;20040;-38
2022/08/03 06:11:34;;;;;;;2.90;0.75;;;19.50;99.90;;;;;;20847200;28;20856;-39
2022/08/03 06:21:35;;;;;;;3.17;1.25;;;19.80;99.90;;;;;;20832161;28;20112;-38
2022/08/03 06:31:36;;;;;;;1.70;0.90;;;20.10;99.90;;;;;;20838211;28;20171;-38
2022/08/03 06:41:37;;;;;;;3.95;0.70;;;20.30;99.90;;;;;;20838725;28;20127;-38
2022/08/03 06:51:38;;;;;;;3.88;1.08;;;20.40;99.90;;;;;;20850493;28;20158;-38
2022/08/03 07:01:39;;;;;;;3.83;1.60;;;20.50;99.90;;;;;;20849947;28;20029;-38
2022/08/03 07:11:40;;;;;;;4.20;1.90;;;20.50;99.90;;;;;;20860914;28;20116;-39
2022/08/03 07:21:41;;;;;;;3.63;1.30;;;20.50;99.90;;;;;;20844911;28;20480;-38
2022/08/03 07:31:42;;;;;;;5.50;1.63;;;20.90;99.90;;;;;;20852417;28;20044;-38
2022/08/03 07:41:43;;;;;;;5.07;1.77;;;21.10;99.90;;;;;;20827809;28;20202;-38
2022/08/03 07:51:44;;;;;;;4.38;1.10;;;21.20;99.90;;;;;;20835688;28;20565;-39
2022/08/03 08:01:45;;;;;;;2.88;1.20;;;21.30;99.90;;;;;;20839837;28;20102;-38
2022/08/03 08:11:46;;;;;;;8.88;2.33;;;21.50;99.90;;;;;;20836264;28;20052;-38
2022/08/03 08:21:47;;;;;;;3.60;1.33;;;22.00;99.90;;;;;;20841993;28;20531;-38
2022/08/03 08:31:49;;;;;;;3.97;1.65;;;22.40;99.90;;;;;;20833055;28;20440;-37
2022/08/03 08:41:50;;;;;;;6.28;1.55;;;22.70;99.90;;;;;;20833941;28;20150;-38
2022/08/03 08:51:53;;;;;;;7.53;2.85;;;23.00;99.90;;;;;;20813896;28;20128;-38
2022/08/03 09:01:57;;;;;;;4.40;1.60;;;23.40;99.90;;;;;;20819044;28;20068;-38
2022/08/03 09:11:59;;;;;;;5.50;2.10;;;23.70;99.90;;;;;;20820913;28;20083;-38
2022/08/03 09:22:11;;;;;;;4.70;2.00;;;24.00;99.90;;;;;;20821443;28;20197;-36
2022/08/03 09:32:13;;;;;;;11.25;2.10;;;24.20;99.90;;;;;;20825938;28;20071;-38
2022/08/03 09:42:16;;;;;;;3.30;1.75;;;24.20;99.90;;;;;;20826825;28;20087;-37
2022/08/03 09:52:21;;;;;;;7.38;1.98;;;24.70;99.90;;;;;;20822699;28;21181;-36
2022/08/03 10:02:25;;;;;;;4.57;2.78;;;25.00;99.90;;;;;;20830854;28;20074;-36
2022/08/03 10:12:27;;;;;;;4.50;1.42;;;25.40;99.90;;;;;;20838170;28;20140;-37
2022/08/03 10:22:32;;;;;;;2.85;1.48;;;25.70;99.90;;;;;;20844204;28;20503;-37
2022/08/03 10:32:39;;;;;;;4.25;1.90;;;26.50;99.90;;;;;;20818368;28;20874;-37
2022/08/03 10:42:45;;;;;;;6.30;1.42;;;26.70;99.90;;;;;;20850365;28;20041;-35
2022/08/03 10:53:05;;;;;;;14.90;2.70;;;27.20;99.90;;;;;;20867156;28;20049;-36
2022/08/03 11:03:13;;;;;;;2.80;1.70;;;27.10;99.90;;;;;;20870349;28;20135;-36
2022/08/03 11:13:20;;;;;;;5.65;1.10;;;27.50;99.90;;;;;;20855215;28;20049;-36
2022/08/03 11:23:41;;;;;;;17.60;1.58;;;28.00;99.90;;;;;;20866887;28;20790;-36
2022/08/03 11:34:05;;;;;;;3.30;1.45;;;28.50;99.90;;;;;;20857149;28;20631;-37
2022/08/03 11:44:06;;;;;;;2.22;1.17;;;29.30;99.90;;;;;;20889913;28;20447;-36
2022/08/03 11:54:07;;;;;;;5.25;1.83;;;29.30;99.90;;;;;;20876905;28;20060;-36
2022/08/03 12:04:10;;;;;;;6.85;1.30;;;29.80;99.90;;;;;;20884987;28;20513;-36
2022/08/03 12:14:16;;;;;;;4.35;0.57;;;30.10;99.90;;;;;;20879545;28;20033;-36
2022/08/03 12:24:17;;;;;;;1.80;0.85;;;30.00;99.90;;;;;;20874467;28;20942;-36
2022/08/03 12:34:18;;;;;;;2.97;1.25;;;30.30;99.90;;;;;;20874014;28;20467;-36
2022/08/03 12:44:29;;;;;;;2.75;1.10;;;30.40;99.90;;;;;;20824750;28;20082;-36
2022/08/03 12:54:32;;;;;;;4.70;1.40;;;31.00;99.90;;;;;;20849170;28;20749;-36
2022/08/03 13:04:35;;;;;;;2.28;1.05;;;30.90;99.90;;;;;;20798230;28;20125;-36
2022/08/03 13:14:36;;;;;;;1.75;0.70;;;30.60;99.90;;;;;;20849836;28;20450;-36
2022/08/03 13:24:37;;;;;;;6.05;2.70;;;30.60;99.90;;;;;;20853029;28;20338;-36
2022/08/03 13:34:38;;;;;;;1.58;0.75;;;31.10;99.90;;;;;;20857986;28;20048;-36
2022/08/03 13:44:39;;;;;;;2.88;0.88;;;31.30;99.20;;;;;;20847624;28;20044;-36
2022/08/03 13:54:40;;;;;;;2.60;1.38;;;31.60;99.30;;;;;;20868902;28;20468;-36
2022/08/03 14:04:41;;;;;;;4.53;1.98;;;32.00;98.90;;;;;;20860080;28;20033;-36
2022/08/03 14:14:42;;;;;;;2.05;0.40;;;31.10;99.60;;;;;;20849644;28;20109;-36
2022/08/03 14:24:43;;;;;;;3.15;1.10;;;31.10;99.90;;;;;;20859090;28;20040;-35
2022/08/03 14:34:44;;;;;;;1.75;0.60;;;30.80;99.90;;;;;;20861149;28;20052;-36
2022/08/03 14:44:46;;;;;;;2.90;0.63;;;30.50;99.50;;;;;;20860435;28;20067;-36
2022/08/03 14:54:47;;;;;;;2.63;0.47;;;30.40;99.90;;;;;;20858340;28;20105;-36
2022/08/03 15:04:48;;;;;;;2.97;0.93;;;30.30;99.90;;;;;;20855087;28;20044;-36
2022/08/03 15:14:49;;;;;;;0.60;0.30;;;30.00;99.90;;;;;;20860455;28;20076;-36
2022/08/03 15:24:50;;;;;;;1.17;0.68;;;30.50;99.50;;;;;;20859900;28;20047;-36
2022/08/03 15:34:51;;;;;;;1.10;0.38;;;30.20;99.10;;;;;;20850946;28;20115;-36
2022/08/03 15:44:52;;;;;;;1.63;0.40;;;30.00;99.70;;;;;;20819845;28;20492;-36
2022/08/03 15:54:53;;;;;;;4.45;0.88;;;30.30;99.90;;;;;;20836272;28;20068;-36
2022/08/03 16:04:54;;;;;;;1.10;0.30;;;30.20;99.90;;;;;;20832903;28;20048;-36
2022/08/03 16:14:56;;;;;;;1.67;0.30;;;30.10;99.90;;;;;;20825896;28;20118;-36
2022/08/03 16:24:58;;;;;;;0.70;0.30;;;29.80;99.90;;;;;;20857586;28;20126;-36
2022/08/03 16:35:00;;;;;;;1.77;0.40;;;29.60;99.90;;;;;;20841305;28;20187;-36
2022/08/03 16:45:02;;;;;;;1.95;0.38;;;29.60;99.90;;;;;;20852274;28;20109;-36
2022/08/03 16:55:05;;;;;;;1.05;0.50;;;29.30;99.90;;;;;;20854446;28;20072;-36
2022/08/03 17:05:06;;;;;;;1.13;0.20;;;29.10;99.90;;;;;;20848571;28;20144;-36
2022/08/03 17:15:07;;;;;;;2.30;1.23;;;28.90;99.90;;;;;;20848663;28;20122;-36
2022/08/03 17:25:09;;;;;;;0.57;0.30;;;28.70;99.90;;;;;;20847825;28;20072;-36
2022/08/03 17:35:11;;;;;;;0.50;0.20;;;28.60;99.90;;;;;;20847479;28;20099;-36
2022/08/03 17:45:12;;;;;;;0.70;0.30;;;28.50;99.90;;;;;;20839012;28;20144;-36
2022/08/03 17:55:24;;;;;;;2.47;1.15;;;28.20;99.90;;;;;;20856885;28;20094;-36
2022/08/03 18:05:27;;;;;;;0.50;0.20;;;28.00;99.90;;;;;;20860569;28;20578;-36
2022/08/03 18:15:33;;;;;;;1.40;0.40;;;27.80;99.90;;;;;;20852108;28;20167;-36
2022/08/03 18:25:37;;;;;;;1.90;0.20;;;27.50;99.90;;;;;;20866575;28;20606;-36
2022/08/03 18:35:41;;;;;;;1.95;1.13;;;27.20;99.90;;;;;;20867250;28;20513;-36
2022/08/03 18:45:46;;;;;;;1.23;0.20;;;27.00;99.90;;;;;;20883650;28;20032;-36
2022/08/03 18:56:13;;;;;;;0.73;0.30;;;26.70;99.90;;;;;;20885925;28;20037;-36
2022/08/03 19:06:22;;;;;;;1.55;0.63;;;26.40;99.90;;;;;;20889210;28;20550;-35
2022/08/03 19:16:37;;;;;;;1.80;0.50;;;26.10;99.90;;;;;;20830338;28;20838;-36
2022/08/03 19:26:40;;;;;;;0.88;0.50;;;25.90;99.90;;;;;;20866367;28;21928;-36
2022/08/03 19:36:41;;;;;;;0.50;0.20;;;25.50;99.90;;;;;;20898143;28;20114;-35
2022/08/03 19:46:49;;;;;;;1.30;0.43;;;25.30;99.90;;;;;;20889048;28;20187;-35
2022/08/03 19:56:52;;;;;;;1.23;0.43;;;25.00;99.90;;;;;;20872550;28;20541;-35
2022/08/03 20:06:56;;;;;;;2.13;0.50;;;24.60;99.90;;;;;;20880620;28;20488;-35
2022/08/03 20:16:57;;;;;;;1.58;0.60;;;24.40;99.90;;;;;;20875779;28;20209;-35
2022/08/03 20:27:00;;;;;;;0.88;0.38;;;24.20;99.90;;;;;;20881968;28;20503;-35
2022/08/03 20:37:01;;;;;;;4.25;0.70;;;24.00;99.90;;;;;;20871934;28;20045;-35
2022/08/03 20:47:03;;;;;;;1.13;0.32;;;23.70;99.90;;;;;;20882555;28;20086;-35
2022/08/03 20:57:06;;;;;;;3.55;2.05;;;23.60;99.90;;;;;;20866989;28;20041;-35
2022/08/03 21:07:14;;;;;;;1.00;0.38;;;23.50;99.90;;;;;;20844830;28;20135;-35
2022/08/03 21:17:19;;;;;;;0.80;0.50;;;23.40;99.90;;;;;;20864317;28;20139;-37
2022/08/03 21:27:22;;;;;;;2.27;0.70;;;23.30;99.90;;;;;;20879086;28;20049;-37
2022/08/03 21:37:25;;;;;;;1.98;0.20;;;23.10;99.90;;;;;;20860790;28;20128;-37
2022/08/03 21:47:26;;;;;;;1.58;0.60;;;22.90;99.90;;;;;;20847465;28;20077;-38
2022/08/03 21:57:30;;;;;;;0.95;0.30;;;22.90;99.90;;;;;;20848789;28;20067;-37
2022/08/03 22:07:32;;;;;;;1.42;0.43;;;22.80;99.90;;;;;;20836950;28;20895;-38
2022/08/03 22:17:35;;;;;;;2.45;0.60;;;22.70;99.90;;;;;;20848375;28;20067;-38
2022/08/03 22:27:42;;;;;;;1.17;0.50;;;22.60;99.90;;;;;;20850246;28;20152;-38
2022/08/03 22:37:47;;;;;;;1.33;0.90;;;22.50;99.90;;;;;;20851711;28;20124;-37
2022/08/03 22:47:50;;;;;;;4.15;0.40;;;22.50;99.90;;;;;;20851420;28;20154;-37
2022/08/03 22:57:51;;;;;;;0.75;0.30;;;22.40;99.90;;;;;;20847985;28;20076;-37
2022/08/03 23:07:52;;;;;;;0.82;0.20;;;22.30;99.90;;;;;;20855068;28;20070;-38
2022/08/03 23:17:56;;;;;;;1.48;0.40;;;22.20;99.90;;;;;;20847858;28;20119;-38
2022/08/03 23:28:00;;;;;;;0.85;0.38;;;22.10;99.90;;;;;;20844405;28;20071;-38
2022/08/03 23:38:02;;;;;;;0.60;0.30;;;21.90;99.90;;;;;;20837907;28;20176;-37
2022/08/03 23:48:03;;;;;;;1.13;0.30;;;21.90;99.90;;;;;;20832493;28;20926;-37
2022/08/03 23:58:09;;;;;;;2.50;0.70;;;21.80;99.90;;;;;;20835028;28;20065;-38
